sensor_id;sensor_type;location;lat;lon;timestamp;temperature;humidity
36352;DHT22;22382;44.768;17.206;2022-09-16T00:00:31;19.10;99.90
36352;DHT22;22382;44.768;17.206;2022-09-16T00:02:58;19.00;99.90
36352;DHT22;22382;44.768;17.206;2022-09-16T00:05:25;19.10;99.90
36352;DHT22;22382;44.768;17.206;2022-09-16T00:07:53;19.10;99.90
36352;DHT22;22382;44.768;17.206;2022-09-16T00:10:22;19.10;99.90
36352;DHT22;22382;44.768;17.206;2022-09-16T00:12:49;19.10;99.90
36352;DHT22;22382;44.768;17.206;2022-09-16T00:15:16;19.10;99.90
36352;DHT22;22382;44.768;17.206;2022-09-16T00:17:43;19.10;99.90
36352;DHT22;22382;44.768;17.206;2022-09-16T00:20:11;19.10;99.90
36352;DHT22;22382;44.768;17.206;2022-09-16T00:22:38;19.00;99.90
36352;DHT22;22382;44.768;17.206;2022-09-16T00:25:05;19.00;99.90
36352;DHT22;22382;44.768;17.206;2022-09-16T00:27:32;19.00;99.90
36352;DHT22;22382;44.768;17.206;2022-09-16T00:29:59;19.00;99.90
36352;DHT22;22382;44.768;17.206;2022-09-16T00:32:27;19.10;99.90
36352;DHT22;22382;44.768;17.206;2022-09-16T00:34:54;19.20;99.90
36352;DHT22;22382;44.768;17.206;2022-09-16T00:37:21;19.20;99.90
36352;DHT22;22382;44.768;17.206;2022-09-16T00:39:48;19.10;99.90
36352;DHT22;22382;44.768;17.206;2022-09-16T00:42:17;19.10;99.90
36352;DHT22;22382;44.768;17.206;2022-09-16T00:44:59;19.10;99.90
36352;DHT22;22382;44.768;17.206;2022-09-16T00:50:27;19.10;99.90
36352;DHT22;22382;44.768;17.206;2022-09-16T00:52:59;19.00;99.90
36352;DHT22;22382;44.768;17.206;2022-09-16T00:55:29;19.00;99.90
36352;DHT22;22382;44.768;17.206;2022-09-16T00:58:03;19.00;99.90
36352;DHT22;22382;44.768;17.206;2022-09-16T01:00:32;19.00;99.90
36352;DHT22;22382;44.768;17.206;2022-09-16T01:02:59;19.00;99.90
36352;DHT22;22382;44.768;17.206;2022-09-16T01:05:26;19.00;99.90
36352;DHT22;22382;44.768;17.206;2022-09-16T01:07:54;18.90;99.90
36352;DHT22;22382;44.768;17.206;2022-09-16T01:10:25;18.90;99.90
36352;DHT22;22382;44.768;17.206;2022-09-16T01:12:58;19.00;99.90
36352;DHT22;22382;44.768;17.206;2022-09-16T01:26:53;18.80;99.90
36352;DHT22;22382;44.768;17.206;2022-09-16T01:35:22;18.70;99.90
36352;DHT22;22382;44.768;17.206;2022-09-16T01:43:14;18.70;99.90
36352;DHT22;22382;44.768;17.206;2022-09-16T01:45:53;18.70;99.90
36352;DHT22;22382;44.768;17.206;2022-09-16T01:48:34;18.60;99.90
36352;DHT22;22382;44.768;17.206;2022-09-16T01:53:40;18.60;99.90
36352;DHT22;22382;44.768;17.206;2022-09-16T02:01:53;18.60;99.90
36352;DHT22;22382;44.768;17.206;2022-09-16T02:04:22;18.60;99.90
36352;DHT22;22382;44.768;17.206;2022-09-16T02:06:51;18.60;99.90
36352;DHT22;22382;44.768;17.206;2022-09-16T02:09:27;18.60;99.90
36352;DHT22;22382;44.768;17.206;2022-09-16T02:11:57;18.60;99.90
36352;DHT22;22382;44.768;17.206;2022-09-16T02:14:34;18.60;99.90
36352;DHT22;22382;44.768;17.206;2022-09-16T02:17:06;18.60;99.90
36352;DHT22;22382;44.768;17.206;2022-09-16T02:19:38;18.60;99.90
36352;DHT22;22382;44.768;17.206;2022-09-16T02:22:10;18.70;99.90
36352;DHT22;22382;44.768;17.206;2022-09-16T02:24:41;18.80;99.90
36352;DHT22;22382;44.768;17.206;2022-09-16T02:27:13;18.80;99.90
36352;DHT22;22382;44.768;17.206;2022-09-16T02:29:46;18.80;99.90
36352;DHT22;22382;44.768;17.206;2022-09-16T02:32:15;18.90;99.90
36352;DHT22;22382;44.768;17.206;2022-09-16T02:34:45;18.80;99.90
36352;DHT22;22382;44.768;17.206;2022-09-16T02:37:40;18.80;99.90
36352;DHT22;22382;44.768;17.206;2022-09-16T02:40:27;18.80;99.90
36352;DHT22;22382;44.768;17.206;2022-09-16T02:42:56;18.70;99.90
36352;DHT22;22382;44.768;17.206;2022-09-16T02:45:42;18.80;99.90
36352;DHT22;22382;44.768;17.206;2022-09-16T02:54:11;18.50;99.90
36352;DHT22;22382;44.768;17.206;2022-09-16T02:56:41;18.50;99.90
36352;DHT22;22382;44.768;17.206;2022-09-16T02:59:11;18.50;99.90
36352;DHT22;22382;44.768;17.206;2022-09-16T03:01:41;18.40;99.90
36352;DHT22;22382;44.768;17.206;2022-09-16T03:04:10;18.30;99.90
36352;DHT22;22382;44.768;17.206;2022-09-16T03:06:37;18.30;99.90
36352;DHT22;22382;44.768;17.206;2022-09-16T03:09:07;18.30;99.90
36352;DHT22;22382;44.768;17.206;2022-09-16T03:14:52;18.30;99.90
36352;DHT22;22382;44.768;17.206;2022-09-16T03:25:44;18.20;99.90
36352;DHT22;22382;44.768;17.206;2022-09-16T03:28:17;18.20;99.90
36352;DHT22;22382;44.768;17.206;2022-09-16T03:31:07;18.20;99.90
36352;DHT22;22382;44.768;17.206;2022-09-16T03:34:05;18.20;99.90
36352;DHT22;22382;44.768;17.206;2022-09-16T03:36:44;18.20;99.90
36352;DHT22;22382;44.768;17.206;2022-09-16T03:39:12;18.30;99.90
36352;DHT22;22382;44.768;17.206;2022-09-16T03:41:40;18.20;99.90
36352;DHT22;22382;44.768;17.206;2022-09-16T03:44:07;18.30;99.90
36352;DHT22;22382;44.768;17.206;2022-09-16T03:46:34;18.40;99.90
36352;DHT22;22382;44.768;17.206;2022-09-16T03:49:01;18.40;99.90
36352;DHT22;22382;44.768;17.206;2022-09-16T03:51:28;18.40;99.90
36352;DHT22;22382;44.768;17.206;2022-09-16T03:53:55;18.40;99.90
36352;DHT22;22382;44.768;17.206;2022-09-16T03:56:23;18.30;99.90
36352;DHT22;22382;44.768;17.206;2022-09-16T03:58:50;18.30;99.90
36352;DHT22;22382;44.768;17.206;2022-09-16T04:01:17;18.30;99.90
36352;DHT22;22382;44.768;17.206;2022-09-16T04:03:44;18.20;99.90
36352;DHT22;22382;44.768;17.206;2022-09-16T04:06:11;18.20;99.90
36352;DHT22;22382;44.768;17.206;2022-09-16T04:08:38;18.20;99.90
36352;DHT22;22382;44.768;17.206;2022-09-16T04:11:06;18.20;99.90
36352;DHT22;22382;44.768;17.206;2022-09-16T04:13:34;18.30;99.90
36352;DHT22;22382;44.768;17.206;2022-09-16T04:16:02;18.30;99.90
36352;DHT22;22382;44.768;17.206;2022-09-16T04:18:31;18.30;99.90
36352;DHT22;22382;44.768;17.206;2022-09-16T04:20:59;18.40;99.90
36352;DHT22;22382;44.768;17.206;2022-09-16T04:23:27;18.30;99.90
36352;DHT22;22382;44.768;17.206;2022-09-16T04:26:03;18.20;99.90
36352;DHT22;22382;44.768;17.206;2022-09-16T04:28:33;18.20;99.90
36352;DHT22;22382;44.768;17.206;2022-09-16T04:31:05;18.20;99.90
36352;DHT22;22382;44.768;17.206;2022-09-16T04:33:34;18.30;99.90
36352;DHT22;22382;44.768;17.206;2022-09-16T04:36:03;18.30;99.90
36352;DHT22;22382;44.768;17.206;2022-09-16T04:38:30;18.30;99.90
36352;DHT22;22382;44.768;17.206;2022-09-16T04:41:05;18.20;99.90
36352;DHT22;22382;44.768;17.206;2022-09-16T04:43:32;18.20;99.90
36352;DHT22;22382;44.768;17.206;2022-09-16T04:46:00;18.30;99.90
36352;DHT22;22382;44.768;17.206;2022-09-16T04:48:27;18.30;99.90
36352;DHT22;22382;44.768;17.206;2022-09-16T04:51:01;18.30;99.90
36352;DHT22;22382;44.768;17.206;2022-09-16T04:53:29;18.30;99.90
36352;DHT22;22382;44.768;17.206;2022-09-16T04:56:22;18.30;99.90
36352;DHT22;22382;44.768;17.206;2022-09-16T04:58:51;18.30;99.90
36352;DHT22;22382;44.768;17.206;2022-09-16T05:01:26;18.20;99.90
36352;DHT22;22382;44.768;17.206;2022-09-16T05:03:56;18.20;99.90
36352;DHT22;22382;44.768;17.206;2022-09-16T05:06:26;18.20;99.90
36352;DHT22;22382;44.768;17.206;2022-09-16T05:08:54;18.20;99.90
36352;DHT22;22382;44.768;17.206;2022-09-16T05:11:27;18.20;99.90
36352;DHT22;22382;44.768;17.206;2022-09-16T05:13:57;18.30;99.90
36352;DHT22;22382;44.768;17.206;2022-09-16T05:16:24;18.30;99.90
36352;DHT22;22382;44.768;17.206;2022-09-16T05:18:54;18.30;99.90
36352;DHT22;22382;44.768;17.206;2022-09-16T05:21:23;18.40;99.90
36352;DHT22;22382;44.768;17.206;2022-09-16T05:23:50;18.40;99.90
36352;DHT22;22382;44.768;17.206;2022-09-16T05:26:20;18.40;99.90
36352;DHT22;22382;44.768;17.206;2022-09-16T05:28:48;18.50;99.90
36352;DHT22;22382;44.768;17.206;2022-09-16T05:31:23;18.50;99.90
36352;DHT22;22382;44.768;17.206;2022-09-16T05:34:17;18.60;99.90
36352;DHT22;22382;44.768;17.206;2022-09-16T05:36:45;18.50;99.90
36352;DHT22;22382;44.768;17.206;2022-09-16T05:39:14;18.60;99.90
36352;DHT22;22382;44.768;17.206;2022-09-16T05:41:57;18.80;99.90
36352;DHT22;22382;44.768;17.206;2022-09-16T05:44:25;18.90;99.90
36352;DHT22;22382;44.768;17.206;2022-09-16T05:46:53;19.00;99.90
36352;DHT22;22382;44.768;17.206;2022-09-16T05:49:20;19.10;99.90
36352;DHT22;22382;44.768;17.206;2022-09-16T05:51:48;19.00;99.90
36352;DHT22;22382;44.768;17.206;2022-09-16T05:54:16;19.00;99.90
36352;DHT22;22382;44.768;17.206;2022-09-16T05:56:46;19.00;99.90
36352;DHT22;22382;44.768;17.206;2022-09-16T05:59:14;19.00;99.90
36352;DHT22;22382;44.768;17.206;2022-09-16T06:01:42;19.20;99.90
36352;DHT22;22382;44.768;17.206;2022-09-16T06:04:11;19.10;99.90
36352;DHT22;22382;44.768;17.206;2022-09-16T06:06:43;19.00;99.90
36352;DHT22;22382;44.768;17.206;2022-09-16T06:09:13;19.00;99.90
36352;DHT22;22382;44.768;17.206;2022-09-16T06:11:43;19.00;99.90
36352;DHT22;22382;44.768;17.206;2022-09-16T06:14:11;19.00;99.90
36352;DHT22;22382;44.768;17.206;2022-09-16T06:16:39;18.90;99.90
36352;DHT22;22382;44.768;17.206;2022-09-16T06:19:09;18.90;99.90
36352;DHT22;22382;44.768;17.206;2022-09-16T06:21:37;19.00;99.90
36352;DHT22;22382;44.768;17.206;2022-09-16T06:24:04;19.20;99.90
36352;DHT22;22382;44.768;17.206;2022-09-16T06:26:36;19.40;99.90
36352;DHT22;22382;44.768;17.206;2022-09-16T06:29:04;19.60;99.90
36352;DHT22;22382;44.768;17.206;2022-09-16T06:31:33;19.90;99.90
36352;DHT22;22382;44.768;17.206;2022-09-16T06:34:00;20.00;99.90
36352;DHT22;22382;44.768;17.206;2022-09-16T06:36:29;20.10;99.90
36352;DHT22;22382;44.768;17.206;2022-09-16T06:38:57;20.20;99.90
36352;DHT22;22382;44.768;17.206;2022-09-16T06:41:24;20.30;99.90
36352;DHT22;22382;44.768;17.206;2022-09-16T06:43:51;20.40;99.90
36352;DHT22;22382;44.768;17.206;2022-09-16T06:46:22;20.50;99.90
36352;DHT22;22382;44.768;17.206;2022-09-16T06:48:51;20.50;99.90
36352;DHT22;22382;44.768;17.206;2022-09-16T06:51:27;20.60;99.90
36352;DHT22;22382;44.768;17.206;2022-09-16T06:53:59;20.60;99.90
36352;DHT22;22382;44.768;17.206;2022-09-16T06:56:26;20.70;99.90
36352;DHT22;22382;44.768;17.206;2022-09-16T06:58:54;20.70;99.90
36352;DHT22;22382;44.768;17.206;2022-09-16T07:01:27;20.60;99.90
36352;DHT22;22382;44.768;17.206;2022-09-16T07:03:55;20.50;99.90
36352;DHT22;22382;44.768;17.206;2022-09-16T07:06:27;20.40;99.90
36352;DHT22;22382;44.768;17.206;2022-09-16T07:09:15;20.40;99.90
36352;DHT22;22382;44.768;17.206;2022-09-16T07:11:42;20.50;99.90
36352;DHT22;22382;44.768;17.206;2022-09-16T07:14:10;20.60;99.90
36352;DHT22;22382;44.768;17.206;2022-09-16T07:16:37;20.60;99.90
36352;DHT22;22382;44.768;17.206;2022-09-16T07:19:04;20.90;99.90
36352;DHT22;22382;44.768;17.206;2022-09-16T07:21:31;21.30;99.90
36352;DHT22;22382;44.768;17.206;2022-09-16T07:24:00;21.50;99.90
36352;DHT22;22382;44.768;17.206;2022-09-16T07:26:29;21.30;99.90
36352;DHT22;22382;44.768;17.206;2022-09-16T07:29:02;21.50;99.90
36352;DHT22;22382;44.768;17.206;2022-09-16T07:31:30;21.60;99.90
36352;DHT22;22382;44.768;17.206;2022-09-16T07:33:58;21.20;99.90
36352;DHT22;22382;44.768;17.206;2022-09-16T07:36:43;21.60;99.90
36352;DHT22;22382;44.768;17.206;2022-09-16T07:39:12;22.10;99.90
36352;DHT22;22382;44.768;17.206;2022-09-16T07:41:42;22.20;99.90
36352;DHT22;22382;44.768;17.206;2022-09-16T07:44:14;22.30;99.90
36352;DHT22;22382;44.768;17.206;2022-09-16T07:46:41;22.40;99.90
36352;DHT22;22382;44.768;17.206;2022-09-16T07:49:11;22.20;99.90
36352;DHT22;22382;44.768;17.206;2022-09-16T07:51:39;21.70;99.90
36352;DHT22;22382;44.768;17.206;2022-09-16T07:54:10;21.80;99.90
36352;DHT22;22382;44.768;17.206;2022-09-16T07:56:38;21.60;99.90
36352;DHT22;22382;44.768;17.206;2022-09-16T07:59:09;21.70;99.90
36352;DHT22;22382;44.768;17.206;2022-09-16T08:01:43;22.00;99.90
36352;DHT22;22382;44.768;17.206;2022-09-16T08:04:10;22.00;99.90
36352;DHT22;22382;44.768;17.206;2022-09-16T08:06:38;22.10;99.90
36352;DHT22;22382;44.768;17.206;2022-09-16T08:09:05;22.40;99.90
36352;DHT22;22382;44.768;17.206;2022-09-16T08:11:52;23.00;99.90
36352;DHT22;22382;44.768;17.206;2022-09-16T08:14:19;23.10;99.90
36352;DHT22;22382;44.768;17.206;2022-09-16T08:16:46;23.20;99.90
36352;DHT22;22382;44.768;17.206;2022-09-16T08:19:17;23.10;99.90
36352;DHT22;22382;44.768;17.206;2022-09-16T08:21:45;22.90;99.90
36352;DHT22;22382;44.768;17.206;2022-09-16T08:24:12;22.90;99.90
36352;DHT22;22382;44.768;17.206;2022-09-16T08:26:39;22.90;99.90
36352;DHT22;22382;44.768;17.206;2022-09-16T08:29:06;23.10;99.90
36352;DHT22;22382;44.768;17.206;2022-09-16T08:31:36;23.30;99.90
36352;DHT22;22382;44.768;17.206;2022-09-16T08:34:04;23.20;99.90
36352;DHT22;22382;44.768;17.206;2022-09-16T08:36:31;23.00;99.90
36352;DHT22;22382;44.768;17.206;2022-09-16T08:39:01;23.00;99.90
36352;DHT22;22382;44.768;17.206;2022-09-16T08:47:06;22.90;99.90
36352;DHT22;22382;44.768;17.206;2022-09-16T08:49:39;23.00;99.90
36352;DHT22;22382;44.768;17.206;2022-09-16T08:54:51;22.50;99.90
36352;DHT22;22382;44.768;17.206;2022-09-16T08:57:25;22.50;99.90
36352;DHT22;22382;44.768;17.206;2022-09-16T09:00:14;22.70;99.90
36352;DHT22;22382;44.768;17.206;2022-09-16T09:08:22;22.80;99.90
36352;DHT22;22382;44.768;17.206;2022-09-16T09:11:02;22.70;99.90
36352;DHT22;22382;44.768;17.206;2022-09-16T09:14:16;22.90;99.90
36352;DHT22;22382;44.768;17.206;2022-09-16T09:25:39;23.10;99.90
36352;DHT22;22382;44.768;17.206;2022-09-16T09:30:53;22.90;99.90
36352;DHT22;22382;44.768;17.206;2022-09-16T09:33:34;23.20;99.90
36352;DHT22;22382;44.768;17.206;2022-09-16T09:36:39;23.20;99.90
36352;DHT22;22382;44.768;17.206;2022-09-16T09:42:09;23.70;99.90
36352;DHT22;22382;44.768;17.206;2022-09-16T09:44:57;23.90;99.90
36352;DHT22;22382;44.768;17.206;2022-09-16T09:48:40;23.90;99.90
36352;DHT22;22382;44.768;17.206;2022-09-16T09:50:48;23.80;99.90
36352;DHT22;22382;44.768;17.206;2022-09-16T09:53:34;23.80;99.90
36352;DHT22;22382;44.768;17.206;2022-09-16T09:56:29;23.50;99.90
36352;DHT22;22382;44.768;17.206;2022-09-16T10:01:39;23.80;99.90
36352;DHT22;22382;44.768;17.206;2022-09-16T10:04:14;23.80;99.90
36352;DHT22;22382;44.768;17.206;2022-09-16T10:06:41;23.80;99.90
36352;DHT22;22382;44.768;17.206;2022-09-16T10:09:12;23.60;99.90
36352;DHT22;22382;44.768;17.206;2022-09-16T10:11:54;23.30;99.90
36352;DHT22;22382;44.768;17.206;2022-09-16T10:14:33;23.80;99.90
36352;DHT22;22382;44.768;17.206;2022-09-16T10:17:03;23.90;99.90
36352;DHT22;22382;44.768;17.206;2022-09-16T10:19:34;24.20;99.90
36352;DHT22;22382;44.768;17.206;2022-09-16T10:22:10;24.20;99.90
36352;DHT22;22382;44.768;17.206;2022-09-16T10:24:39;24.40;99.90
36352;DHT22;22382;44.768;17.206;2022-09-16T10:27:23;24.30;99.90
36352;DHT22;22382;44.768;17.206;2022-09-16T10:32:59;24.60;99.90
36352;DHT22;22382;44.768;17.206;2022-09-16T10:35:33;24.70;99.90
36352;DHT22;22382;44.768;17.206;2022-09-16T10:38:04;24.50;99.90
36352;DHT22;22382;44.768;17.206;2022-09-16T10:40:32;24.80;99.90
36352;DHT22;22382;44.768;17.206;2022-09-16T10:43:05;24.90;99.90
36352;DHT22;22382;44.768;17.206;2022-09-16T10:45:50;25.50;99.90
36352;DHT22;22382;44.768;17.206;2022-09-16T10:48:20;25.60;99.90
36352;DHT22;22382;44.768;17.206;2022-09-16T10:51:03;25.80;99.90
36352;DHT22;22382;44.768;17.206;2022-09-16T10:53:37;25.60;99.90
36352;DHT22;22382;44.768;17.206;2022-09-16T10:56:48;25.50;99.90
36352;DHT22;22382;44.768;17.206;2022-09-16T10:59:15;25.80;99.90
36352;DHT22;22382;44.768;17.206;2022-09-16T11:05:10;25.60;99.90
36352;DHT22;22382;44.768;17.206;2022-09-16T11:07:51;25.50;99.90
36352;DHT22;22382;44.768;17.206;2022-09-16T11:10:31;25.10;99.90
36352;DHT22;22382;44.768;17.206;2022-09-16T11:30:08;24.50;99.90
36352;DHT22;22382;44.768;17.206;2022-09-16T11:41:09;25.00;99.90
36352;DHT22;22382;44.768;17.206;2022-09-16T11:57:58;25.30;99.90
36352;DHT22;22382;44.768;17.206;2022-09-16T12:00:28;25.30;99.90
36352;DHT22;22382;44.768;17.206;2022-09-16T12:03:18;25.50;99.90
36352;DHT22;22382;44.768;17.206;2022-09-16T12:05:52;25.70;99.90
36352;DHT22;22382;44.768;17.206;2022-09-16T12:11:27;25.70;99.90
36352;DHT22;22382;44.768;17.206;2022-09-16T12:14:36;25.00;99.90
36352;DHT22;22382;44.768;17.206;2022-09-16T12:20:01;24.90;99.90
36352;DHT22;22382;44.768;17.206;2022-09-16T12:22:39;25.20;99.90
36352;DHT22;22382;44.768;17.206;2022-09-16T12:25:20;25.30;99.90
36352;DHT22;22382;44.768;17.206;2022-09-16T12:27:51;25.30;99.90
36352;DHT22;22382;44.768;17.206;2022-09-16T12:30:22;25.20;99.90
36352;DHT22;22382;44.768;17.206;2022-09-16T12:33:18;24.80;99.90
36352;DHT22;22382;44.768;17.206;2022-09-16T12:35:58;24.40;99.90
36352;DHT22;22382;44.768;17.206;2022-09-16T12:38:27;24.00;99.90
36352;DHT22;22382;44.768;17.206;2022-09-16T12:50:24;24.00;99.90
36352;DHT22;22382;44.768;17.206;2022-09-16T13:01:10;23.60;99.90
36352;DHT22;22382;44.768;17.206;2022-09-16T13:03:43;23.40;99.90
36352;DHT22;22382;44.768;17.206;2022-09-16T13:08:54;22.90;99.90
36352;DHT22;22382;44.768;17.206;2022-09-16T13:11:27;22.60;99.90
36352;DHT22;22382;44.768;17.206;2022-09-16T13:14:24;22.10;99.90
36352;DHT22;22382;44.768;17.206;2022-09-16T13:16:55;21.80;99.90
36352;DHT22;22382;44.768;17.206;2022-09-16T13:25:08;21.40;99.90
36352;DHT22;22382;44.768;17.206;2022-09-16T13:27:38;21.40;99.90
36352;DHT22;22382;44.768;17.206;2022-09-16T13:32:57;21.10;99.90
36352;DHT22;22382;44.768;17.206;2022-09-16T13:35:36;21.10;99.90
36352;DHT22;22382;44.768;17.206;2022-09-16T13:40:58;21.10;99.90
36352;DHT22;22382;44.768;17.206;2022-09-16T13:46:12;21.40;99.90
36352;DHT22;22382;44.768;17.206;2022-09-16T13:51:21;21.40;99.90
36352;DHT22;22382;44.768;17.206;2022-09-16T13:53:52;21.40;99.90
36352;DHT22;22382;44.768;17.206;2022-09-16T14:10:53;21.30;99.90
36352;DHT22;22382;44.768;17.206;2022-09-16T14:13:23;21.20;99.90
36352;DHT22;22382;44.768;17.206;2022-09-16T14:15:53;21.10;99.90
36352;DHT22;22382;44.768;17.206;2022-09-16T14:18:24;20.70;99.90
36352;DHT22;22382;44.768;17.206;2022-09-16T14:21:00;20.50;99.90
36352;DHT22;22382;44.768;17.206;2022-09-16T14:23:27;20.50;99.90
36352;DHT22;22382;44.768;17.206;2022-09-16T14:25:55;20.70;99.90
36352;DHT22;22382;44.768;17.206;2022-09-16T14:28:24;20.70;99.90
36352;DHT22;22382;44.768;17.206;2022-09-16T14:30:57;20.80;99.90
36352;DHT22;22382;44.768;17.206;2022-09-16T14:34:06;20.90;99.90
36352;DHT22;22382;44.768;17.206;2022-09-16T14:36:30;21.00;99.90
36352;DHT22;22382;44.768;17.206;2022-09-16T14:41:38;21.20;99.90
36352;DHT22;22382;44.768;17.206;2022-09-16T14:44:40;21.10;99.90
36352;DHT22;22382;44.768;17.206;2022-09-16T14:47:18;21.10;99.90
36352;DHT22;22382;44.768;17.206;2022-09-16T14:50:11;21.10;99.90
36352;DHT22;22382;44.768;17.206;2022-09-16T14:52:40;21.00;99.90
36352;DHT22;22382;44.768;17.206;2022-09-16T14:55:21;21.10;99.90
36352;DHT22;22382;44.768;17.206;2022-09-16T14:57:48;21.10;99.90
36352;DHT22;22382;44.768;17.206;2022-09-16T15:00:16;21.00;99.90
36352;DHT22;22382;44.768;17.206;2022-09-16T15:03:05;20.80;99.90
36352;DHT22;22382;44.768;17.206;2022-09-16T15:05:35;20.40;99.90
36352;DHT22;22382;44.768;17.206;2022-09-16T15:08:11;20.20;99.90
36352;DHT22;22382;44.768;17.206;2022-09-16T15:10:47;20.10;99.90
36352;DHT22;22382;44.768;17.206;2022-09-16T15:13:20;19.90;99.90
36352;DHT22;22382;44.768;17.206;2022-09-16T15:15:52;19.60;99.90
36352;DHT22;22382;44.768;17.206;2022-09-16T15:18:21;19.40;99.90
36352;DHT22;22382;44.768;17.206;2022-09-16T15:20:54;19.40;99.90
36352;DHT22;22382;44.768;17.206;2022-09-16T15:23:24;19.40;99.90
36352;DHT22;22382;44.768;17.206;2022-09-16T15:25:55;19.10;99.90
36352;DHT22;22382;44.768;17.206;2022-09-16T15:28:23;19.10;99.90
36352;DHT22;22382;44.768;17.206;2022-09-16T15:30:54;19.00;99.90
36352;DHT22;22382;44.768;17.206;2022-09-16T15:35:58;18.80;99.90
36352;DHT22;22382;44.768;17.206;2022-09-16T15:38:25;18.60;99.90
36352;DHT22;22382;44.768;17.206;2022-09-16T15:41:01;18.50;99.90
36352;DHT22;22382;44.768;17.206;2022-09-16T15:43:33;18.30;99.90
36352;DHT22;22382;44.768;17.206;2022-09-16T15:46:05;18.10;99.90
36352;DHT22;22382;44.768;17.206;2022-09-16T15:48:46;18.00;99.90
36352;DHT22;22382;44.768;17.206;2022-09-16T15:51:34;18.00;99.90
36352;DHT22;22382;44.768;17.206;2022-09-16T15:54:27;18.10;99.90
36352;DHT22;22382;44.768;17.206;2022-09-16T16:02:48;18.10;99.90
36352;DHT22;22382;44.768;17.206;2022-09-16T16:05:21;18.00;99.90
36352;DHT22;22382;44.768;17.206;2022-09-16T16:07:50;18.00;99.90
36352;DHT22;22382;44.768;17.206;2022-09-16T16:10:19;18.00;99.90
36352;DHT22;22382;44.768;17.206;2022-09-16T16:12:48;17.90;99.90
36352;DHT22;22382;44.768;17.206;2022-09-16T16:15:36;17.90;99.90
36352;DHT22;22382;44.768;17.206;2022-09-16T16:18:06;17.90;99.90
36352;DHT22;22382;44.768;17.206;2022-09-16T16:20:35;17.90;99.90
36352;DHT22;22382;44.768;17.206;2022-09-16T16:23:03;17.90;99.90
36352;DHT22;22382;44.768;17.206;2022-09-16T16:25:29;17.90;99.90
36352;DHT22;22382;44.768;17.206;2022-09-16T16:27:56;18.00;99.90
36352;DHT22;22382;44.768;17.206;2022-09-16T16:30:23;17.80;99.90
36352;DHT22;22382;44.768;17.206;2022-09-16T16:32:50;17.80;99.90
36352;DHT22;22382;44.768;17.206;2022-09-16T16:35:17;17.90;99.90
36352;DHT22;22382;44.768;17.206;2022-09-16T16:37:44;18.10;99.90
36352;DHT22;22382;44.768;17.206;2022-09-16T16:40:14;17.90;99.90
36352;DHT22;22382;44.768;17.206;2022-09-16T16:42:42;17.80;99.90
36352;DHT22;22382;44.768;17.206;2022-09-16T16:45:12;17.60;99.90
36352;DHT22;22382;44.768;17.206;2022-09-16T16:47:40;17.60;99.90
36352;DHT22;22382;44.768;17.206;2022-09-16T16:50:08;17.70;99.90
36352;DHT22;22382;44.768;17.206;2022-09-16T16:52:35;17.70;99.90
36352;DHT22;22382;44.768;17.206;2022-09-16T16:55:03;17.70;99.90
36352;DHT22;22382;44.768;17.206;2022-09-16T16:57:30;17.70;99.90
36352;DHT22;22382;44.768;17.206;2022-09-16T16:59:57;17.70;99.90
36352;DHT22;22382;44.768;17.206;2022-09-16T17:02:24;17.70;99.90
36352;DHT22;22382;44.768;17.206;2022-09-16T17:04:51;17.50;99.90
36352;DHT22;22382;44.768;17.206;2022-09-16T17:07:18;17.30;99.90
36352;DHT22;22382;44.768;17.206;2022-09-16T17:09:54;17.00;99.90
36352;DHT22;22382;44.768;17.206;2022-09-16T17:12:25;16.80;99.90
36352;DHT22;22382;44.768;17.206;2022-09-16T17:14:53;16.80;99.90
36352;DHT22;22382;44.768;17.206;2022-09-16T17:17:20;16.70;99.90
36352;DHT22;22382;44.768;17.206;2022-09-16T17:19:47;16.70;99.90
36352;DHT22;22382;44.768;17.206;2022-09-16T17:22:13;16.80;99.90
36352;DHT22;22382;44.768;17.206;2022-09-16T17:24:41;16.80;99.90
36352;DHT22;22382;44.768;17.206;2022-09-16T17:27:08;16.70;99.90
36352;DHT22;22382;44.768;17.206;2022-09-16T17:29:35;16.70;99.90
36352;DHT22;22382;44.768;17.206;2022-09-16T17:32:02;16.70;99.90
36352;DHT22;22382;44.768;17.206;2022-09-16T17:34:29;16.70;99.90
36352;DHT22;22382;44.768;17.206;2022-09-16T17:36:57;16.90;99.90
36352;DHT22;22382;44.768;17.206;2022-09-16T17:39:24;16.90;99.90
36352;DHT22;22382;44.768;17.206;2022-09-16T17:41:51;16.90;99.90
36352;DHT22;22382;44.768;17.206;2022-09-16T17:44:20;16.80;99.90
36352;DHT22;22382;44.768;17.206;2022-09-16T17:46:47;16.80;99.90
36352;DHT22;22382;44.768;17.206;2022-09-16T17:49:17;16.70;99.90
36352;DHT22;22382;44.768;17.206;2022-09-16T17:51:46;16.60;99.90
36352;DHT22;22382;44.768;17.206;2022-09-16T17:54:13;16.60;99.90
36352;DHT22;22382;44.768;17.206;2022-09-16T17:56:40;16.60;99.90
36352;DHT22;22382;44.768;17.206;2022-09-16T17:59:11;16.60;99.90
36352;DHT22;22382;44.768;17.206;2022-09-16T18:01:39;16.60;99.90
36352;DHT22;22382;44.768;17.206;2022-09-16T18:04:06;16.60;99.90
36352;DHT22;22382;44.768;17.206;2022-09-16T18:06:39;16.70;99.90
36352;DHT22;22382;44.768;17.206;2022-09-16T18:09:07;16.60;99.90
36352;DHT22;22382;44.768;17.206;2022-09-16T18:11:35;16.60;99.90
36352;DHT22;22382;44.768;17.206;2022-09-16T18:14:05;16.50;99.90
36352;DHT22;22382;44.768;17.206;2022-09-16T18:16:32;16.40;99.90
36352;DHT22;22382;44.768;17.206;2022-09-16T18:19:00;16.40;99.90
36352;DHT22;22382;44.768;17.206;2022-09-16T18:21:28;16.40;99.90
36352;DHT22;22382;44.768;17.206;2022-09-16T18:24:00;16.40;99.90
36352;DHT22;22382;44.768;17.206;2022-09-16T18:26:29;16.60;99.90
36352;DHT22;22382;44.768;17.206;2022-09-16T18:28:56;16.60;99.90
36352;DHT22;22382;44.768;17.206;2022-09-16T18:31:36;16.70;99.90
36352;DHT22;22382;44.768;17.206;2022-09-16T18:34:04;16.70;99.90
36352;DHT22;22382;44.768;17.206;2022-09-16T18:36:31;16.80;99.90
36352;DHT22;22382;44.768;17.206;2022-09-16T18:39:00;16.80;99.90
36352;DHT22;22382;44.768;17.206;2022-09-16T18:41:34;16.80;99.90
36352;DHT22;22382;44.768;17.206;2022-09-16T18:44:09;16.90;99.90
36352;DHT22;22382;44.768;17.206;2022-09-16T18:46:37;16.80;99.90
36352;DHT22;22382;44.768;17.206;2022-09-16T18:49:05;16.80;99.90
36352;DHT22;22382;44.768;17.206;2022-09-16T18:54:01;16.90;99.90
36352;DHT22;22382;44.768;17.206;2022-09-16T18:56:31;16.90;99.90
36352;DHT22;22382;44.768;17.206;2022-09-16T18:59:04;16.80;99.90
36352;DHT22;22382;44.768;17.206;2022-09-16T19:01:51;16.80;99.90
36352;DHT22;22382;44.768;17.206;2022-09-16T19:04:23;16.90;99.90